createdAt,value
2024-04-17T02:38:17.279Z,1.45
2024-04-17T02:40:44.800Z,1.70
2024-04-17T02:43:12.288Z,1.50
2024-04-17T02:45:41.554Z,1.30
2024-04-17T02:48:09.230Z,1.70
2024-04-17T02:50:41.941Z,1.90
2024-04-17T02:53:09.899Z,1.83
2024-04-17T02:55:37.423Z,2.00
2024-04-17T02:58:05.012Z,1.40
2024-04-17T03:00:32.449Z,1.70
2024-04-17T03:03:00.028Z,1.65
2024-04-17T03:06:02.873Z,1.40
2024-04-17T03:08:30.384Z,1.83
2024-04-17T03:11:03.717Z,2.13
2024-04-17T03:13:31.643Z,1.83
2024-04-17T03:16:03.695Z,1.90
2024-04-17T03:18:32.280Z,1.70
2024-04-17T03:21:01.360Z,2.10
2024-04-17T03:23:29.470Z,1.80
2024-04-17T03:26:03.046Z,1.88
2024-04-17T03:28:30.735Z,2.00
2024-04-17T03:31:02.282Z,1.80
2024-04-17T03:33:30.192Z,2.00
2024-04-17T03:36:01.198Z,2.13
2024-04-17T03:38:29.147Z,2.10
2024-04-17T03:40:57.124Z,1.65
2024-04-17T03:43:25.194Z,2.40
2024-04-17T03:45:52.843Z,2.05
2024-04-17T03:48:20.743Z,1.92
2024-04-17T03:50:48.544Z,2.33
2024-04-17T04:39:43.592Z,1.92
2024-04-17T04:46:23.952Z,1.65
2024-04-17T04:48:51.688Z,2.03
2024-04-17T04:51:19.296Z,2.47
2024-04-17T05:38:50.046Z,2.40
2024-04-17T05:41:19.166Z,1.98
2024-04-17T05:43:47.715Z,2.42
2024-04-17T05:46:19.073Z,2.00
2024-04-17T05:48:51.113Z,2.00
2024-04-17T05:51:56.529Z,2.50
2024-04-17T05:54:24.523Z,2.65
2024-04-17T05:56:52.658Z,2.65
2024-04-17T05:59:37.756Z,2.80
2024-04-17T06:05:40.617Z,2.10
2024-04-17T06:21:54.587Z,2.97
2024-04-17T06:24:33.502Z,2.20
2024-04-17T06:27:10.764Z,2.40
2024-04-17T06:29:38.877Z,2.70
2024-04-17T06:32:08.196Z,3.15
2024-04-17T06:35:38.799Z,3.23
2024-04-17T06:38:06.825Z,2.72
2024-04-17T06:44:40.257Z,2.40
2024-04-17T07:00:58.011Z,2.10
2024-04-17T07:03:31.914Z,2.35
2024-04-17T07:16:20.783Z,2.13
2024-04-17T07:18:48.357Z,2.30
2024-04-17T07:21:48.616Z,2.43
2024-04-17T07:24:16.222Z,2.15
2024-04-17T07:26:43.686Z,2.63
2024-04-17T07:29:11.486Z,2.60
2024-04-17T07:31:39.294Z,2.75
2024-04-17T07:37:43.412Z,1.98
2024-04-17T07:40:11.054Z,2.20
2024-04-17T08:11:04.119Z,2.15
2024-04-17T08:13:31.752Z,2.33
2024-04-17T08:22:54.465Z,2.10
2024-04-17T08:32:20.952Z,2.40
2024-04-17T08:35:00.588Z,2.15
2024-04-17T08:48:34.725Z,2.40
2024-04-17T08:55:22.728Z,2.10
2024-04-17T08:57:50.404Z,2.80
2024-04-17T09:00:28.144Z,2.20
2024-04-17T12:10:42.834Z,3.83
2024-04-17T12:13:17.531Z,3.20
2024-04-17T12:15:46.368Z,4.03
2024-04-17T12:21:41.269Z,3.97
2024-04-17T12:24:18.216Z,3.42
2024-04-17T12:27:32.006Z,4.00
2024-04-17T12:39:51.879Z,4.15
2024-04-17T12:42:49.020Z,4.00
2024-04-17T12:45:17.171Z,4.37
2024-04-17T12:47:46.032Z,3.58
2024-04-17T12:50:13.527Z,3.72
2024-04-17T12:52:41.334Z,3.70
2024-04-17T12:55:09.022Z,4.38
2024-04-17T12:57:36.575Z,3.73
2024-04-17T13:00:05.014Z,3.90
2024-04-17T13:02:43.146Z,3.75
2024-04-17T13:05:11.119Z,3.67
2024-04-17T13:07:40.955Z,4.10
2024-04-17T13:10:10.310Z,4.43
2024-04-17T13:12:38.308Z,4.43
2024-04-17T13:15:06.995Z,4.28
2024-04-17T13:17:35.267Z,4.30
2024-04-17T13:20:07.339Z,3.55
2024-04-17T13:22:35.778Z,4.37
2024-04-17T13:25:09.539Z,5.20
2024-04-17T13:27:38.111Z,6.55
2024-04-17T13:30:09.151Z,6.47
2024-04-17T13:32:39.119Z,7.30
2024-04-17T13:35:13.918Z,6.63
2024-04-17T13:37:45.822Z,7.68
2024-04-17T13:40:13.710Z,7.68
2024-04-17T14:01:28.739Z,6.30
2024-04-17T14:35:48.039Z,6.78
2024-04-17T14:41:42.597Z,5.90
2024-04-17T14:44:44.775Z,4.45
2024-04-17T15:50:12.828Z,2.63
2024-04-17T16:03:10.219Z,3.65
2024-04-17T16:06:12.225Z,3.27
2024-04-17T16:08:58.656Z,3.17
2024-04-17T16:11:27.172Z,2.55
2024-04-17T16:14:00.731Z,3.58
2024-04-17T16:16:29.260Z,3.15
2024-04-17T16:19:00.078Z,3.10
2024-04-17T16:39:07.446Z,2.70
2024-04-17T16:49:04.912Z,3.10
2024-04-17T16:55:35.031Z,3.00
2024-04-17T17:01:45.299Z,2.95
2024-04-17T17:04:15.509Z,3.30
2024-04-17T17:06:43.633Z,3.63
2024-04-17T17:09:34.779Z,3.25
2024-04-17T17:12:06.703Z,2.78
2024-04-17T20:00:30.046Z,3.13
2024-04-17T20:06:25.035Z,4.53
2024-04-17T22:17:49.782Z,4.85
2024-04-17T22:20:26.714Z,4.72
2024-04-17T22:22:54.578Z,4.57
2024-04-17T22:25:22.487Z,4.47
2024-04-17T22:27:50.697Z,4.53
2024-04-17T22:30:18.917Z,4.60
2024-04-17T22:36:13.008Z,5.13
2024-04-17T22:38:41.473Z,5.15
2024-04-17T22:41:29.664Z,5.20
2024-04-17T22:44:21.618Z,4.40
2024-04-17T22:46:51.681Z,5.53
2024-04-17T22:49:19.156Z,5.17
2024-04-17T22:51:46.953Z,5.35
2024-04-17T22:54:16.817Z,4.32
2024-04-17T22:56:44.568Z,4.93
2024-04-17T22:59:12.215Z,4.68
2024-04-17T23:01:41.557Z,4.63
2024-04-17T23:04:35.946Z,5.10
2024-04-17T23:07:06.075Z,5.07
2024-04-17T23:10:07.503Z,5.18
2024-04-17T23:12:38.033Z,5.30
2024-04-17T23:15:32.662Z,5.37
2024-04-17T23:18:00.771Z,5.15
2024-04-17T23:20:29.085Z,5.20
2024-04-17T23:22:57.231Z,4.53
2024-04-17T23:25:26.875Z,5.30
2024-04-17T23:31:52.722Z,5.47
2024-04-17T23:34:21.756Z,5.35
2024-04-17T23:36:49.462Z,5.82
2024-04-17T23:39:17.765Z,6.07
2024-04-17T23:42:31.462Z,6.20
2024-04-17T23:45:27.480Z,5.90
2024-04-17T23:51:31.740Z,5.35
2024-04-17T23:57:38.280Z,5.53
